createdAt,value
2019-04-04T00:04:06.175Z,43.81
2019-04-04T00:09:10.957Z,44.02
2019-04-04T00:14:14.775Z,44.80
2019-04-04T00:19:18.567Z,44.34
2019-04-04T00:24:22.353Z,44.49
2019-04-04T00:29:26.134Z,44.49
2019-04-04T00:34:30.101Z,45.08
2019-04-04T00:39:33.888Z,44.84
2019-04-04T00:44:37.673Z,44.66
2019-04-04T00:49:41.472Z,44.66
2019-04-04T00:54:45.474Z,44.73
2019-04-04T00:59:49.571Z,44.73
2019-04-04T01:04:53.430Z,44.89
2019-04-04T01:09:57.237Z,45.11
2019-04-04T01:15:01.054Z,45.01
2019-04-04T01:20:07.016Z,45.39
2019-04-04T01:25:11.283Z,44.94
2019-04-04T01:30:15.063Z,45.50
2019-04-04T01:35:18.953Z,45.50
2019-04-04T01:40:22.780Z,45.23
2019-04-04T01:45:26.598Z,45.37
2019-04-04T01:50:30.366Z,45.36
2019-04-04T01:55:35.034Z,45.46
2019-04-04T02:00:39.447Z,46.03
2019-04-04T02:05:43.240Z,45.86
2019-04-04T02:10:47.031Z,45.86
2019-04-04T02:15:50.817Z,46.26
2019-04-04T02:20:57.537Z,46.87
2019-04-04T02:26:00.101Z,47.05
2019-04-04T02:31:05.557Z,47.06
2019-04-04T02:36:09.384Z,46.72
2019-04-04T02:41:15.386Z,47.42
2019-04-04T02:46:18.787Z,47.64
2019-04-04T02:51:22.702Z,47.45
2019-04-04T02:56:26.477Z,47.02
2019-04-04T03:01:32.090Z,47.02
2019-04-04T03:06:35.831Z,47.47
2019-04-04T03:11:39.628Z,47.43
2019-04-04T03:16:43.424Z,47.82
2019-04-04T03:21:47.209Z,47.82
2019-04-04T03:26:52.620Z,47.23
2019-04-04T03:31:56.579Z,47.14
2019-04-04T03:37:00.472Z,47.42
2019-04-04T03:42:06.969Z,47.79
2019-04-04T03:47:10.391Z,48.21
2019-04-04T03:52:15.181Z,48.11
2019-04-04T03:57:18.975Z,47.96
2019-04-04T04:02:23.000Z,47.65
2019-04-04T04:07:26.879Z,48.03
2019-04-04T04:12:30.789Z,48.03
2019-04-04T04:17:36.496Z,47.29
2019-04-04T04:22:40.237Z,47.11
2019-04-04T04:27:47.376Z,47.15
2019-04-04T04:32:49.624Z,47.88
2019-04-04T04:37:53.948Z,47.74
2019-04-04T04:43:00.714Z,47.47
2019-04-04T04:48:03.508Z,47.55
2019-04-04T04:53:07.423Z,47.61
2019-04-04T04:58:11.405Z,47.58
2019-04-04T05:03:15.264Z,47.69
2019-04-04T05:08:19.108Z,47.68
2019-04-04T05:13:24.626Z,47.68
2019-04-04T05:18:28.493Z,47.79
2019-04-04T05:23:32.365Z,47.68
2019-04-04T05:28:36.230Z,47.57
2019-04-04T05:33:40.007Z,47.56
2019-04-04T05:38:46.878Z,47.58
2019-04-04T05:43:49.346Z,47.58
2019-04-04T05:48:53.235Z,47.61
2019-04-04T05:53:57.044Z,47.83
2019-04-04T05:59:00.810Z,47.83
2019-04-04T06:04:04.701Z,47.64
2019-04-04T06:09:08.849Z,47.56
2019-04-04T06:14:12.623Z,47.46
2019-04-04T06:19:16.395Z,47.78
2019-04-04T06:24:20.340Z,47.57
2019-04-04T06:29:24.138Z,47.88
2019-04-04T06:34:27.917Z,47.38
2019-04-04T06:39:31.737Z,47.38
2019-04-04T06:44:35.546Z,47.33
2019-04-04T06:49:39.334Z,47.85
2019-04-04T06:54:43.149Z,47.59
2019-04-04T06:59:46.947Z,44.06
2019-04-04T07:04:50.737Z,44.95
2019-04-04T07:09:54.529Z,46.17
2019-04-04T07:14:58.317Z,46.22
2019-04-04T07:20:02.127Z,45.32
2019-04-04T07:25:06.884Z,45.32
2019-04-04T07:30:10.816Z,43.73
2019-04-04T07:35:16.845Z,41.67
2019-04-04T07:40:20.431Z,41.67
2019-04-04T07:45:26.744Z,40.12
2019-04-04T07:50:29.888Z,40.42
2019-04-04T07:55:34.501Z,39.59
2019-04-04T08:00:38.289Z,39.85
2019-04-04T08:05:42.145Z,39.88
2019-04-04T08:10:46.042Z,40.30
2019-04-04T08:15:49.875Z,40.12
2019-04-04T08:20:53.675Z,40.68
2019-04-04T08:25:57.508Z,40.52
2019-04-04T08:31:01.345Z,41.06
2019-04-04T08:36:06.501Z,40.63
2019-04-04T08:41:10.510Z,40.63
2019-04-04T08:46:14.368Z,41.84
2019-04-04T08:51:18.211Z,42.22
2019-04-04T08:56:22.017Z,42.22
2019-04-04T09:01:25.821Z,42.33
2019-04-04T09:06:29.679Z,42.72
2019-04-04T09:11:33.514Z,43.53
2019-04-04T09:16:37.340Z,43.80
2019-04-04T09:21:41.132Z,44.03
2019-04-04T09:26:44.949Z,43.77
2019-04-04T09:31:48.772Z,43.77
2019-04-04T09:36:52.581Z,43.90
2019-04-04T09:41:56.413Z,44.25
2019-04-04T09:47:05.524Z,44.25
2019-04-04T09:52:05.850Z,44.05
2019-04-04T09:57:09.630Z,43.43
2019-04-04T10:02:13.502Z,43.62
2019-04-04T10:07:17.320Z,43.58
2019-04-04T10:12:21.140Z,43.58
2019-04-04T10:17:24.963Z,43.70
2019-04-04T10:22:28.877Z,43.70
2019-04-04T10:27:32.665Z,43.46
2019-04-04T10:32:36.502Z,43.47
2019-04-04T10:37:40.290Z,43.22
2019-04-04T10:42:44.217Z,43.19
2019-04-04T10:47:48.831Z,43.19
2019-04-04T10:52:52.634Z,43.10
2019-04-04T10:57:56.424Z,43.37
2019-04-04T11:03:00.232Z,43.37
2019-04-04T11:08:04.025Z,42.91
2019-04-04T11:13:08.038Z,43.02
2019-04-04T11:18:11.996Z,43.49
2019-04-04T11:23:15.755Z,44.22
2019-04-04T11:28:19.532Z,42.02
2019-04-04T11:33:23.299Z,40.35
2019-04-04T11:38:27.090Z,40.35
2019-04-04T11:43:30.961Z,40.43
2019-04-04T11:48:34.743Z,40.60
2019-04-04T11:53:38.566Z,40.60
2019-04-04T11:58:42.364Z,41.41
2019-04-04T12:03:46.157Z,41.41
2019-04-04T12:08:49.925Z,39.64
2019-04-04T12:13:53.899Z,39.64
2019-04-04T12:18:57.658Z,39.42
2019-04-04T12:24:01.461Z,39.02
2019-04-04T12:29:05.311Z,39.38
2019-04-04T12:34:09.122Z,38.93
2019-04-04T12:39:15.186Z,38.79
2019-04-04T12:44:19.034Z,38.79
2019-04-04T12:49:22.808Z,38.45
2019-04-04T12:54:26.617Z,38.45
2019-04-04T12:59:30.385Z,38.69
2019-04-04T13:04:34.286Z,38.15
2019-04-04T13:09:38.107Z,38.15
2019-04-04T13:14:41.875Z,38.15
2019-04-04T13:19:45.680Z,38.59
2019-04-04T13:24:49.477Z,39.99
2019-04-04T13:29:53.289Z,39.37
2019-04-04T13:34:59.626Z,39.37
2019-04-04T13:40:02.899Z,40.48
2019-04-04T13:45:06.714Z,39.80
2019-04-04T13:50:12.595Z,40.53
2019-04-04T13:55:16.733Z,40.36
2019-04-04T14:00:20.719Z,40.46
2019-04-04T14:05:32.085Z,40.43
2019-04-04T14:10:35.893Z,40.43
2019-04-04T14:15:39.715Z,40.71
2019-04-04T14:20:43.550Z,40.77
2019-04-04T14:25:53.038Z,40.77
2019-04-04T14:30:56.783Z,40.77
2019-04-04T14:36:00.552Z,41.47
2019-04-04T14:41:11.021Z,41.93
2019-04-04T14:46:09.965Z,40.88
2019-04-04T14:51:13.778Z,40.88
2019-04-04T14:56:17.607Z,40.33
2019-04-04T15:01:21.564Z,40.42
2019-04-04T15:06:25.406Z,40.86
2019-04-04T15:11:29.261Z,40.32
2019-04-04T15:16:33.108Z,40.54
2019-04-04T15:21:37.466Z,40.19
2019-04-04T15:26:41.225Z,39.92
2019-04-04T15:31:45.069Z,40.24
2019-04-04T15:36:48.846Z,39.91
2019-04-04T15:41:52.603Z,40.04
2019-04-04T15:46:56.582Z,40.45
2019-04-04T15:52:00.406Z,40.09
2019-04-04T15:57:04.267Z,39.83
2019-04-04T16:02:08.107Z,40.61
2019-04-04T16:07:11.935Z,40.41
2019-04-04T16:12:15.798Z,41.79
2019-04-04T16:17:19.597Z,41.64
2019-04-04T16:22:23.648Z,41.64
2019-04-04T16:27:27.484Z,41.75
2019-04-04T16:32:31.303Z,41.23
2019-04-04T16:37:35.155Z,40.97
2019-04-04T16:42:38.961Z,40.97
2019-04-04T16:47:42.841Z,40.83
2019-04-04T16:52:46.765Z,40.43
2019-04-04T16:57:50.526Z,39.85
2019-04-04T17:02:54.331Z,39.67
2019-04-04T17:07:58.117Z,39.96
2019-04-04T17:13:01.969Z,40.01
2019-04-04T17:18:05.830Z,40.01
2019-04-04T17:23:09.615Z,39.63
2019-04-04T17:28:13.419Z,39.63
2019-04-04T17:33:17.336Z,40.18
2019-04-04T17:38:21.568Z,39.67
2019-04-04T17:43:25.383Z,40.70
2019-04-04T17:48:31.642Z,40.69
2019-04-04T17:53:35.416Z,40.69
2019-04-04T17:58:39.376Z,40.37
2019-04-04T18:03:43.283Z,40.65
2019-04-04T18:08:47.081Z,40.43
2019-04-04T18:13:50.963Z,40.68
2019-04-04T18:18:54.829Z,40.57
2019-04-04T18:23:58.617Z,40.79
2019-04-04T18:29:02.432Z,40.63
2019-04-04T18:34:08.338Z,40.82
2019-04-04T18:39:12.087Z,40.82
2019-04-04T18:44:15.918Z,41.04
2019-04-04T18:49:19.791Z,41.28
2019-04-04T18:54:23.692Z,41.80
2019-04-04T18:59:27.529Z,41.95
2019-04-04T19:04:31.353Z,42.08
2019-04-04T19:09:35.270Z,41.60
2019-04-04T19:14:39.076Z,41.84
2019-04-04T19:19:42.978Z,41.97
2019-04-04T19:24:46.770Z,41.97
2019-04-04T19:29:50.571Z,41.82
2019-04-04T19:34:54.370Z,42.11
2019-04-04T19:39:58.181Z,42.12
2019-04-04T19:45:02.036Z,42.21
2019-04-04T19:50:06.470Z,42.21
2019-04-04T19:55:10.324Z,42.13
2019-04-04T20:00:14.209Z,42.28
2019-04-04T20:05:18.237Z,42.40
2019-04-04T20:10:22.107Z,42.79
2019-04-04T20:15:25.979Z,42.79
2019-04-04T20:20:29.793Z,42.98
2019-04-04T20:25:33.590Z,42.98
2019-04-04T20:30:37.972Z,42.84
2019-04-04T20:35:41.807Z,42.91
2019-04-04T20:40:45.603Z,43.21
2019-04-04T20:45:49.387Z,43.14
2019-04-04T20:50:53.268Z,43.25
2019-04-04T20:55:57.207Z,43.17
2019-04-04T21:01:00.992Z,43.17
2019-04-04T21:06:04.832Z,43.17
2019-04-04T21:11:08.826Z,43.91
2019-04-04T21:16:12.759Z,43.78
2019-04-04T21:21:16.563Z,43.78
2019-04-04T21:26:20.452Z,42.63
2019-04-04T21:31:24.245Z,43.17
2019-04-04T21:36:28.123Z,43.05
2019-04-04T21:41:31.921Z,43.79
2019-04-04T21:46:35.803Z,43.75
2019-04-04T21:51:39.752Z,43.59
2019-04-04T21:56:43.688Z,43.97
2019-04-04T22:01:47.489Z,43.46
2019-04-04T22:06:51.450Z,43.56
2019-04-04T22:11:55.266Z,43.56
2019-04-04T22:16:59.149Z,43.58
2019-04-04T22:22:02.946Z,44.26
2019-04-04T22:27:06.834Z,44.34
2019-04-04T22:32:10.648Z,44.28
2019-04-04T22:37:14.440Z,44.09
2019-04-04T22:42:18.297Z,44.61
2019-04-04T22:47:22.156Z,44.12
2019-04-04T22:58:46.637Z,43.97
2019-04-04T23:03:50.459Z,44.48
2019-04-04T23:08:54.241Z,44.71
2019-04-04T23:13:58.127Z,44.71
2019-04-04T23:19:01.933Z,45.12
2019-04-04T23:24:06.041Z,45.49
2019-04-04T23:29:09.820Z,44.80
2019-04-04T23:34:13.756Z,45.02
2019-04-04T23:39:17.911Z,45.50
2019-04-04T23:44:21.677Z,45.02
2019-04-04T23:59:31.755Z,45.84
